sensor_id;sensor_type;location;lat;lon;timestamp;pressure;altitude;pressure_sealevel;temperature;humidity
33404;BME280;19751;40.274;18.268;2023-01-28T00:02:15;100476.75;;;7.44;100.00
33404;BME280;19751;40.274;18.268;2023-01-28T00:04:40;100473.91;;;7.45;100.00
33404;BME280;19751;40.274;18.268;2023-01-28T00:07:06;100473.84;;;7.54;100.00
33404;BME280;19751;40.274;18.268;2023-01-28T00:09:31;100467.81;;;7.60;100.00
33404;BME280;19751;40.274;18.268;2023-01-28T00:11:56;100471.41;;;7.67;100.00
33404;BME280;19751;40.274;18.268;2023-01-28T00:14:23;100477.13;;;7.72;100.00
33404;BME280;19751;40.274;18.268;2023-01-28T00:16:48;100481.94;;;7.77;100.00
33404;BME280;19751;40.274;18.268;2023-01-28T00:19:14;100482.41;;;7.80;100.00
33404;BME280;19751;40.274;18.268;2023-01-28T00:21:39;100476.69;;;7.83;100.00
33404;BME280;19751;40.274;18.268;2023-01-28T00:24:05;100475.69;;;7.84;100.00
33404;BME280;19751;40.274;18.268;2023-01-28T00:26:33;100479.84;;;7.87;100.00
33404;BME280;19751;40.274;18.268;2023-01-28T00:28:59;100471.63;;;7.88;100.00
33404;BME280;19751;40.274;18.268;2023-01-28T00:31:25;100476.34;;;7.86;100.00
33404;BME280;19751;40.274;18.268;2023-01-28T00:33:54;100479.00;;;7.86;100.00
33404;BME280;19751;40.274;18.268;2023-01-28T00:36:22;100482.03;;;7.83;100.00
33404;BME280;19751;40.274;18.268;2023-01-28T00:38:50;100487.47;;;7.75;100.00
33404;BME280;19751;40.274;18.268;2023-01-28T00:41:18;100479.13;;;7.70;100.00
33404;BME280;19751;40.274;18.268;2023-01-28T00:43:46;100485.19;;;7.64;100.00
33404;BME280;19751;40.274;18.268;2023-01-28T00:46:13;100487.25;;;7.54;100.00
33404;BME280;19751;40.274;18.268;2023-01-28T00:48:39;100484.94;;;7.51;100.00
33404;BME280;19751;40.274;18.268;2023-01-28T00:51:05;100493.97;;;7.50;100.00
33404;BME280;19751;40.274;18.268;2023-01-28T00:53:32;100491.97;;;7.52;100.00
33404;BME280;19751;40.274;18.268;2023-01-28T00:55:59;100495.66;;;7.51;100.00
33404;BME280;19751;40.274;18.268;2023-01-28T00:58:25;100500.03;;;7.43;100.00
33404;BME280;19751;40.274;18.268;2023-01-28T01:00:50;100494.06;;;7.33;100.00
33404;BME280;19751;40.274;18.268;2023-01-28T01:03:17;100502.09;;;7.33;100.00
33404;BME280;19751;40.274;18.268;2023-01-28T01:05:43;100507.63;;;7.32;100.00
33404;BME280;19751;40.274;18.268;2023-01-28T01:08:09;100501.75;;;7.36;100.00
33404;BME280;19751;40.274;18.268;2023-01-28T01:10:36;100506.56;;;7.41;100.00
33404;BME280;19751;40.274;18.268;2023-01-28T01:13:02;100503.03;;;7.48;100.00
33404;BME280;19751;40.274;18.268;2023-01-28T01:15:27;100499.63;;;7.55;100.00
33404;BME280;19751;40.274;18.268;2023-01-28T01:17:53;100512.34;;;7.61;100.00
33404;BME280;19751;40.274;18.268;2023-01-28T01:20:21;100510.28;;;7.71;100.00
33404;BME280;19751;40.274;18.268;2023-01-28T01:22:46;100508.41;;;7.80;100.00
33404;BME280;19751;40.274;18.268;2023-01-28T01:25:13;100500.16;;;7.81;100.00
33404;BME280;19751;40.274;18.268;2023-01-28T01:27:39;100511.28;;;7.70;100.00
33404;BME280;19751;40.274;18.268;2023-01-28T01:30:05;100505.94;;;7.70;100.00
33404;BME280;19751;40.274;18.268;2023-01-28T01:32:33;100506.41;;;7.73;100.00
33404;BME280;19751;40.274;18.268;2023-01-28T01:35:03;100506.75;;;7.70;100.00
33404;BME280;19751;40.274;18.268;2023-01-28T01:37:30;100514.00;;;7.62;100.00
33404;BME280;19751;40.274;18.268;2023-01-28T01:39:55;100512.06;;;7.56;100.00
33404;BME280;19751;40.274;18.268;2023-01-28T01:42:21;100516.25;;;7.50;100.00
33404;BME280;19751;40.274;18.268;2023-01-28T01:47:15;100513.16;;;7.38;100.00
33404;BME280;19751;40.274;18.268;2023-01-28T01:49:42;100509.78;;;7.36;100.00
33404;BME280;19751;40.274;18.268;2023-01-28T01:52:12;100520.84;;;7.33;100.00
33404;BME280;19751;40.274;18.268;2023-01-28T01:54:41;100521.34;;;7.37;100.00
33404;BME280;19751;40.274;18.268;2023-01-28T01:57:10;100518.50;;;7.38;100.00
33404;BME280;19751;40.274;18.268;2023-01-28T01:59:40;100514.63;;;7.41;100.00
33404;BME280;19751;40.274;18.268;2023-01-28T02:02:08;100516.13;;;7.43;100.00
33404;BME280;19751;40.274;18.268;2023-01-28T02:04:41;100524.97;;;7.52;100.00
33404;BME280;19751;40.274;18.268;2023-01-28T02:07:10;100529.13;;;7.55;100.00
33404;BME280;19751;40.274;18.268;2023-01-28T02:09:36;100531.16;;;7.53;100.00
33404;BME280;19751;40.274;18.268;2023-01-28T02:12:17;100536.84;;;7.50;100.00
33404;BME280;19751;40.274;18.268;2023-01-28T02:14:47;100529.50;;;7.52;100.00
33404;BME280;19751;40.274;18.268;2023-01-28T02:17:15;100533.00;;;7.52;100.00
33404;BME280;19751;40.274;18.268;2023-01-28T02:20:11;100525.78;;;7.53;100.00
33404;BME280;19751;40.274;18.268;2023-01-28T02:28:29;100530.63;;;7.57;100.00
33404;BME280;19751;40.274;18.268;2023-01-28T02:36:44;100524.44;;;7.57;100.00
33404;BME280;19751;40.274;18.268;2023-01-28T02:39:15;100528.13;;;7.56;100.00
33404;BME280;19751;40.274;18.268;2023-01-28T02:41:52;100524.78;;;7.54;100.00
33404;BME280;19751;40.274;18.268;2023-01-28T02:44:19;100520.63;;;7.51;100.00
33404;BME280;19751;40.274;18.268;2023-01-28T02:46:45;100527.31;;;7.55;100.00
33404;BME280;19751;40.274;18.268;2023-01-28T02:49:43;100519.72;;;7.59;100.00
33404;BME280;19751;40.274;18.268;2023-01-28T02:55:50;100526.09;;;7.58;100.00
33404;BME280;19751;40.274;18.268;2023-01-28T02:58:24;100529.97;;;7.55;100.00
33404;BME280;19751;40.274;18.268;2023-01-28T03:03:57;100535.03;;;7.42;100.00
33404;BME280;19751;40.274;18.268;2023-01-28T03:06:29;100533.06;;;7.36;100.00
33404;BME280;19751;40.274;18.268;2023-01-28T03:08:58;100530.19;;;7.37;100.00
33404;BME280;19751;40.274;18.268;2023-01-28T03:11:51;100533.38;;;7.41;100.00
33404;BME280;19751;40.274;18.268;2023-01-28T03:14:37;100532.34;;;7.42;100.00
33404;BME280;19751;40.274;18.268;2023-01-28T03:17:37;100533.03;;;7.44;100.00
33404;BME280;19751;40.274;18.268;2023-01-28T03:20:26;100542.22;;;7.50;100.00
33404;BME280;19751;40.274;18.268;2023-01-28T03:23:13;100534.47;;;7.55;100.00
33404;BME280;19751;40.274;18.268;2023-01-28T03:26:00;100532.81;;;7.54;100.00
33404;BME280;19751;40.274;18.268;2023-01-28T03:28:47;100538.84;;;7.56;100.00
33404;BME280;19751;40.274;18.268;2023-01-28T03:31:33;100542.19;;;7.58;100.00
33404;BME280;19751;40.274;18.268;2023-01-28T03:34:20;100552.06;;;7.57;100.00
33404;BME280;19751;40.274;18.268;2023-01-28T03:37:06;100554.56;;;7.59;100.00
33404;BME280;19751;40.274;18.268;2023-01-28T03:39:33;100545.69;;;7.58;100.00
33404;BME280;19751;40.274;18.268;2023-01-28T03:42:02;100546.19;;;7.62;100.00
33404;BME280;19751;40.274;18.268;2023-01-28T03:44:28;100551.72;;;7.60;100.00
33404;BME280;19751;40.274;18.268;2023-01-28T03:47:13;100547.19;;;7.61;100.00
33404;BME280;19751;40.274;18.268;2023-01-28T03:49:40;100545.19;;;7.55;100.00
33404;BME280;19751;40.274;18.268;2023-01-28T03:52:05;100547.22;;;7.53;100.00
33404;BME280;19751;40.274;18.268;2023-01-28T03:54:31;100543.72;;;7.52;100.00
33404;BME280;19751;40.274;18.268;2023-01-28T03:56:56;100544.56;;;7.53;100.00
33404;BME280;19751;40.274;18.268;2023-01-28T03:59:22;100554.63;;;7.51;100.00
33404;BME280;19751;40.274;18.268;2023-01-28T04:01:47;100550.22;;;7.58;100.00
33404;BME280;19751;40.274;18.268;2023-01-28T04:04:15;100552.38;;;7.62;100.00
33404;BME280;19751;40.274;18.268;2023-01-28T04:06:49;100560.75;;;7.67;100.00
33404;BME280;19751;40.274;18.268;2023-01-28T04:09:14;100560.22;;;7.72;100.00
33404;BME280;19751;40.274;18.268;2023-01-28T04:11:40;100564.38;;;7.75;100.00
33404;BME280;19751;40.274;18.268;2023-01-28T04:14:05;100566.47;;;7.64;100.00
33404;BME280;19751;40.274;18.268;2023-01-28T04:16:31;100573.31;;;7.59;100.00
33404;BME280;19751;40.274;18.268;2023-01-28T04:18:56;100574.03;;;7.53;100.00
33404;BME280;19751;40.274;18.268;2023-01-28T04:21:23;100584.25;;;7.49;100.00
33404;BME280;19751;40.274;18.268;2023-01-28T04:23:49;100593.66;;;7.45;100.00
33404;BME280;19751;40.274;18.268;2023-01-28T04:26:15;100589.00;;;7.39;100.00
33404;BME280;19751;40.274;18.268;2023-01-28T04:28:40;100598.53;;;7.41;100.00
33404;BME280;19751;40.274;18.268;2023-01-28T04:31:06;100599.19;;;7.43;100.00
33404;BME280;19751;40.274;18.268;2023-01-28T04:33:31;100601.19;;;7.41;100.00
33404;BME280;19751;40.274;18.268;2023-01-28T04:35:57;100600.22;;;7.42;100.00
33404;BME280;19751;40.274;18.268;2023-01-28T04:38:22;100596.34;;;7.45;100.00
33404;BME280;19751;40.274;18.268;2023-01-28T04:40:49;100600.34;;;7.49;100.00
33404;BME280;19751;40.274;18.268;2023-01-28T04:43:14;100604.16;;;7.55;100.00
33404;BME280;19751;40.274;18.268;2023-01-28T04:45:40;100601.16;;;7.58;100.00
33404;BME280;19751;40.274;18.268;2023-01-28T04:48:05;100610.69;;;7.60;100.00
33404;BME280;19751;40.274;18.268;2023-01-28T04:50:31;100614.06;;;7.54;100.00
33404;BME280;19751;40.274;18.268;2023-01-28T04:52:56;100614.25;;;7.44;100.00
33404;BME280;19751;40.274;18.268;2023-01-28T04:55:22;100614.97;;;7.38;100.00
33404;BME280;19751;40.274;18.268;2023-01-28T04:57:47;100619.16;;;7.33;100.00
33404;BME280;19751;40.274;18.268;2023-01-28T05:00:13;100615.97;;;7.29;100.00
33404;BME280;19751;40.274;18.268;2023-01-28T05:02:39;100613.97;;;7.31;100.00
33404;BME280;19751;40.274;18.268;2023-01-28T05:05:04;100616.97;;;7.36;100.00
33404;BME280;19751;40.274;18.268;2023-01-28T05:07:33;100625.66;;;7.46;100.00
33404;BME280;19751;40.274;18.268;2023-01-28T05:09:59;100621.63;;;7.51;100.00
33404;BME280;19751;40.274;18.268;2023-01-28T05:12:25;100628.66;;;7.52;100.00
33404;BME280;19751;40.274;18.268;2023-01-28T05:14:50;100631.66;;;7.48;100.00
33404;BME280;19751;40.274;18.268;2023-01-28T05:17:15;100630.19;;;7.38;100.00
33404;BME280;19751;40.274;18.268;2023-01-28T05:19:41;100638.59;;;7.35;100.00
33404;BME280;19751;40.274;18.268;2023-01-28T05:22:06;100639.94;;;7.31;100.00
33404;BME280;19751;40.274;18.268;2023-01-28T05:24:32;100641.63;;;7.23;100.00
33404;BME280;19751;40.274;18.268;2023-01-28T05:26:57;100637.09;;;7.24;100.00
33404;BME280;19751;40.274;18.268;2023-01-28T05:29:23;100645.97;;;7.25;100.00
33404;BME280;19751;40.274;18.268;2023-01-28T05:31:48;100644.94;;;7.26;100.00
33404;BME280;19751;40.274;18.268;2023-01-28T05:34:14;100648.81;;;7.23;100.00
33404;BME280;19751;40.274;18.268;2023-01-28T05:36:39;100647.97;;;7.22;100.00
33404;BME280;19751;40.274;18.268;2023-01-28T05:39:05;100649.16;;;7.20;100.00
33404;BME280;19751;40.274;18.268;2023-01-28T05:41:32;100652.66;;;7.20;100.00
33404;BME280;19751;40.274;18.268;2023-01-28T05:43:58;100644.13;;;7.17;100.00
33404;BME280;19751;40.274;18.268;2023-01-28T05:46:23;100648.81;;;7.15;100.00
33404;BME280;19751;40.274;18.268;2023-01-28T05:48:51;100651.31;;;7.16;100.00
33404;BME280;19751;40.274;18.268;2023-01-28T05:51:17;100642.44;;;7.16;100.00
33404;BME280;19751;40.274;18.268;2023-01-28T05:53:42;100646.47;;;7.12;100.00
33404;BME280;19751;40.274;18.268;2023-01-28T05:56:08;100645.47;;;7.05;100.00
33404;BME280;19751;40.274;18.268;2023-01-28T05:58:33;100648.66;;;7.00;100.00
33404;BME280;19751;40.274;18.268;2023-01-28T06:00:59;100651.19;;;6.93;100.00
33404;BME280;19751;40.274;18.268;2023-01-28T06:03:24;100658.72;;;6.90;100.00
33404;BME280;19751;40.274;18.268;2023-01-28T06:05:50;100651.53;;;6.90;100.00
33404;BME280;19751;40.274;18.268;2023-01-28T06:08:16;100655.72;;;6.93;100.00
33404;BME280;19751;40.274;18.268;2023-01-28T06:10:41;100660.88;;;6.86;100.00
33404;BME280;19751;40.274;18.268;2023-01-28T06:13:06;100668.41;;;6.83;100.00
33404;BME280;19751;40.274;18.268;2023-01-28T06:15:32;100662.91;;;6.76;100.00
33404;BME280;19751;40.274;18.268;2023-01-28T06:17:57;100667.06;;;6.70;100.00
33404;BME280;19751;40.274;18.268;2023-01-28T06:20:23;100673.44;;;6.69;100.00
33404;BME280;19751;40.274;18.268;2023-01-28T06:22:52;100674.94;;;6.64;100.00
33404;BME280;19751;40.274;18.268;2023-01-28T06:25:19;100676.28;;;6.60;100.00
33404;BME280;19751;40.274;18.268;2023-01-28T06:27:45;100678.94;;;6.60;100.00
33404;BME280;19751;40.274;18.268;2023-01-28T06:30:11;100688.47;;;6.62;100.00
33404;BME280;19751;40.274;18.268;2023-01-28T06:32:36;100685.13;;;6.60;100.00
33404;BME280;19751;40.274;18.268;2023-01-28T06:35:02;100688.47;;;6.62;100.00
33404;BME280;19751;40.274;18.268;2023-01-28T06:37:28;100687.63;;;6.62;100.00
33404;BME280;19751;40.274;18.268;2023-01-28T06:39:53;100692.66;;;6.65;100.00
33404;BME280;19751;40.274;18.268;2023-01-28T06:42:19;100698.53;;;6.68;100.00
33404;BME280;19751;40.274;18.268;2023-01-28T06:44:45;100704.41;;;6.72;100.00
33404;BME280;19751;40.274;18.268;2023-01-28T06:47:10;100706.72;;;6.75;100.00
33404;BME280;19751;40.274;18.268;2023-01-28T06:49:36;100710.91;;;6.78;100.00
33404;BME280;19751;40.274;18.268;2023-01-28T06:52:02;100716.59;;;6.83;100.00
33404;BME280;19751;40.274;18.268;2023-01-28T06:54:29;100718.13;;;6.85;100.00
33404;BME280;19751;40.274;18.268;2023-01-28T06:56:54;100722.81;;;6.91;100.00
33404;BME280;19751;40.274;18.268;2023-01-28T06:59:20;100720.13;;;7.00;100.00
33404;BME280;19751;40.274;18.268;2023-01-28T07:01:46;100727.50;;;7.06;100.00
33404;BME280;19751;40.274;18.268;2023-01-28T07:04:11;100721.81;;;7.09;100.00
33404;BME280;19751;40.274;18.268;2023-01-28T07:06:36;100735.88;;;7.11;100.00
33404;BME280;19751;40.274;18.268;2023-01-28T07:09:02;100740.72;;;7.15;100.00
33404;BME280;19751;40.274;18.268;2023-01-28T07:11:28;100734.88;;;7.20;100.00
33404;BME280;19751;40.274;18.268;2023-01-28T07:13:53;100743.59;;;7.30;100.00
33404;BME280;19751;40.274;18.268;2023-01-28T07:16:19;100746.91;;;7.40;100.00
33404;BME280;19751;40.274;18.268;2023-01-28T07:18:44;100750.28;;;7.51;100.00
33404;BME280;19751;40.274;18.268;2023-01-28T07:21:10;100753.78;;;7.59;100.00
33404;BME280;19751;40.274;18.268;2023-01-28T07:23:35;100759.16;;;7.59;100.00
33404;BME280;19751;40.274;18.268;2023-01-28T07:26:02;100761.66;;;7.61;100.00
33404;BME280;19751;40.274;18.268;2023-01-28T07:28:28;100769.69;;;7.61;100.00
33404;BME280;19751;40.274;18.268;2023-01-28T07:30:53;100767.66;;;7.63;100.00
33404;BME280;19751;40.274;18.268;2023-01-28T07:33:19;100772.03;;;7.72;100.00
33404;BME280;19751;40.274;18.268;2023-01-28T07:35:45;100768.00;;;7.76;100.00
33404;BME280;19751;40.274;18.268;2023-01-28T07:38:11;100774.00;;;7.78;100.00
33404;BME280;19751;40.274;18.268;2023-01-28T07:40:37;100765.81;;;7.80;100.00
33404;BME280;19751;40.274;18.268;2023-01-28T07:43:03;100761.09;;;7.82;100.00
33404;BME280;19751;40.274;18.268;2023-01-28T07:45:28;100777.00;;;7.83;100.00
33404;BME280;19751;40.274;18.268;2023-01-28T07:48:01;100780.72;;;7.82;100.00
33404;BME280;19751;40.274;18.268;2023-01-28T07:50:28;100779.88;;;7.82;100.00
33404;BME280;19751;40.274;18.268;2023-01-28T07:52:56;100789.97;;;7.80;100.00
33404;BME280;19751;40.274;18.268;2023-01-28T07:55:22;100785.06;;;7.83;100.00
33404;BME280;19751;40.274;18.268;2023-01-28T07:57:53;100786.06;;;7.82;100.00
33404;BME280;19751;40.274;18.268;2023-01-28T08:00:20;100788.78;;;7.74;100.00
33404;BME280;19751;40.274;18.268;2023-01-28T08:02:47;100792.28;;;7.66;100.00
33404;BME280;19751;40.274;18.268;2023-01-28T08:05:18;100792.47;;;7.65;100.00
33404;BME280;19751;40.274;18.268;2023-01-28T08:07:44;100793.50;;;7.64;100.00
33404;BME280;19751;40.274;18.268;2023-01-28T08:10:11;100795.81;;;7.67;100.00
33404;BME280;19751;40.274;18.268;2023-01-28T08:12:38;100805.38;;;7.69;100.00
33404;BME280;19751;40.274;18.268;2023-01-28T08:15:04;100802.69;;;7.69;100.00
33404;BME280;19751;40.274;18.268;2023-01-28T08:17:30;100803.19;;;7.73;100.00
33404;BME280;19751;40.274;18.268;2023-01-28T08:19:55;100804.72;;;7.76;100.00
33404;BME280;19751;40.274;18.268;2023-01-28T08:22:25;100812.75;;;7.76;100.00
33404;BME280;19751;40.274;18.268;2023-01-28T08:24:51;100818.13;;;7.76;100.00
33404;BME280;19751;40.274;18.268;2023-01-28T08:27:16;100822.28;;;7.70;100.00
33404;BME280;19751;40.274;18.268;2023-01-28T08:29:41;100827.31;;;7.73;100.00
33404;BME280;19751;40.274;18.268;2023-01-28T08:32:09;100826.31;;;7.74;100.00
33404;BME280;19751;40.274;18.268;2023-01-28T08:34:35;100830.31;;;7.78;100.00
33404;BME280;19751;40.274;18.268;2023-01-28T08:37:00;100827.81;;;7.85;100.00
33404;BME280;19751;40.274;18.268;2023-01-28T08:39:26;100830.63;;;7.91;100.00
33404;BME280;19751;40.274;18.268;2023-01-28T08:41:51;100822.06;;;7.96;100.00
33404;BME280;19751;40.274;18.268;2023-01-28T08:44:17;100834.31;;;7.98;100.00
33404;BME280;19751;40.274;18.268;2023-01-28T08:46:42;100846.72;;;8.00;100.00
33404;BME280;19751;40.274;18.268;2023-01-28T08:49:08;100848.25;;;8.02;100.00
33404;BME280;19751;40.274;18.268;2023-01-28T08:51:33;100852.59;;;8.03;100.00
33404;BME280;19751;40.274;18.268;2023-01-28T08:53:59;100852.06;;;8.08;100.00
33404;BME280;19751;40.274;18.268;2023-01-28T08:56:25;100849.06;;;8.11;100.00
33404;BME280;19751;40.274;18.268;2023-01-28T08:58:50;100849.56;;;8.14;100.00
33404;BME280;19751;40.274;18.268;2023-01-28T09:01:16;100849.53;;;8.22;100.00
33404;BME280;19751;40.274;18.268;2023-01-28T09:03:41;100854.22;;;8.29;100.00
33404;BME280;19751;40.274;18.268;2023-01-28T09:06:06;100856.91;;;8.37;100.00
33404;BME280;19751;40.274;18.268;2023-01-28T09:08:32;100858.72;;;8.44;100.00
33404;BME280;19751;40.274;18.268;2023-01-28T09:10:58;100860.91;;;8.49;100.00
33404;BME280;19751;40.274;18.268;2023-01-28T09:13:24;100865.59;;;8.55;100.00
33404;BME280;19751;40.274;18.268;2023-01-28T09:15:50;100862.72;;;8.57;100.00
33404;BME280;19751;40.274;18.268;2023-01-28T09:18:16;100867.75;;;8.60;100.00
33404;BME280;19751;40.274;18.268;2023-01-28T09:20:42;100870.09;;;8.63;100.00
33404;BME280;19751;40.274;18.268;2023-01-28T09:23:08;100863.38;;;8.67;100.00
33404;BME280;19751;40.274;18.268;2023-01-28T09:25:34;100871.72;;;8.72;100.00
33404;BME280;19751;40.274;18.268;2023-01-28T09:28:03;100875.91;;;8.75;100.00
33404;BME280;19751;40.274;18.268;2023-01-28T09:30:29;100868.34;;;8.78;100.00
33404;BME280;19751;40.274;18.268;2023-01-28T09:32:55;100863.28;;;8.83;100.00
33404;BME280;19751;40.274;18.268;2023-01-28T09:35:22;100858.22;;;8.88;100.00
33404;BME280;19751;40.274;18.268;2023-01-28T09:37:48;100861.56;;;8.90;100.00
33404;BME280;19751;40.274;18.268;2023-01-28T09:40:35;100859.03;;;8.97;100.00
33404;BME280;19751;40.274;18.268;2023-01-28T09:45:37;100854.09;;;9.09;100.00
33404;BME280;19751;40.274;18.268;2023-01-28T09:48:08;100852.72;;;9.13;100.00
33404;BME280;19751;40.274;18.268;2023-01-28T09:50:37;100849.31;;;9.19;100.00
33404;BME280;19751;40.274;18.268;2023-01-28T09:53:15;100854.16;;;9.24;100.00
33404;BME280;19751;40.274;18.268;2023-01-28T09:55:45;100858.00;;;9.29;100.00
33404;BME280;19751;40.274;18.268;2023-01-28T09:58:14;100846.88;;;9.32;100.00
33404;BME280;19751;40.274;18.268;2023-01-28T10:08:40;100835.53;;;9.45;100.00
33404;BME280;19751;40.274;18.268;2023-01-28T10:11:39;100840.75;;;9.46;100.00
33404;BME280;19751;40.274;18.268;2023-01-28T10:16:56;100836.97;;;9.56;100.00
33404;BME280;19751;40.274;18.268;2023-01-28T10:19:34;100831.88;;;9.61;100.00
33404;BME280;19751;40.274;18.268;2023-01-28T10:22:16;100841.25;;;9.65;100.00
33404;BME280;19751;40.274;18.268;2023-01-28T10:24:55;100834.50;;;9.69;100.00
33404;BME280;19751;40.274;18.268;2023-01-28T10:27:27;100833.13;;;9.73;100.00
33404;BME280;19751;40.274;18.268;2023-01-28T10:30:01;100834.25;;;9.79;100.00
33404;BME280;19751;40.274;18.268;2023-01-28T10:32:47;100831.03;;;9.83;100.00
33404;BME280;19751;40.274;18.268;2023-01-28T10:35:15;100828.59;;;9.88;100.00
33404;BME280;19751;40.274;18.268;2023-01-28T10:37:41;100829.38;;;9.97;100.00
33404;BME280;19751;40.274;18.268;2023-01-28T10:40:18;100834.66;;;10.05;100.00
33404;BME280;19751;40.274;18.268;2023-01-28T10:42:44;100832.25;;;10.10;100.00
33404;BME280;19751;40.274;18.268;2023-01-28T10:45:26;100826.31;;;10.15;100.00
33404;BME280;19751;40.274;18.268;2023-01-28T10:48:02;100823.91;;;10.20;100.00
33404;BME280;19751;40.274;18.268;2023-01-28T10:50:33;100829.63;;;10.25;100.00
33404;BME280;19751;40.274;18.268;2023-01-28T10:53:03;100834.81;;;10.27;100.00
33404;BME280;19751;40.274;18.268;2023-01-28T10:55:48;100834.44;;;10.30;100.00
33404;BME280;19751;40.274;18.268;2023-01-28T10:58:27;100832.03;;;10.35;100.00
33404;BME280;19751;40.274;18.268;2023-01-28T11:01:09;100849.00;;;10.35;100.00
33404;BME280;19751;40.274;18.268;2023-01-28T11:03:54;100836.84;;;10.39;100.00
33404;BME280;19751;40.274;18.268;2023-01-28T11:06:27;100840.84;;;10.43;100.00
33404;BME280;19751;40.274;18.268;2023-01-28T11:08:55;100836.28;;;10.44;100.00
33404;BME280;19751;40.274;18.268;2023-01-28T11:11:26;100837.13;;;10.44;100.00
33404;BME280;19751;40.274;18.268;2023-01-28T11:13:55;100829.91;;;10.45;100.00
33404;BME280;19751;40.274;18.268;2023-01-28T11:16:25;100846.69;;;10.47;100.00
33404;BME280;19751;40.274;18.268;2023-01-28T11:18:58;100850.03;;;10.49;100.00
33404;BME280;19751;40.274;18.268;2023-01-28T11:21:30;100838.72;;;10.54;100.00
33404;BME280;19751;40.274;18.268;2023-01-28T11:24:06;100837.31;;;10.58;100.00
33404;BME280;19751;40.274;18.268;2023-01-28T11:26:48;100844.00;;;10.62;100.00
33404;BME280;19751;40.274;18.268;2023-01-28T11:29:33;100831.16;;;10.64;100.00
33404;BME280;19751;40.274;18.268;2023-01-28T11:32:17;100829.31;;;10.64;100.00
33404;BME280;19751;40.274;18.268;2023-01-28T11:34:54;100834.91;;;10.63;100.00
33404;BME280;19751;40.274;18.268;2023-01-28T11:37:24;100833.03;;;10.63;100.00
33404;BME280;19751;40.274;18.268;2023-01-28T11:40:19;100832.00;;;10.64;100.00
33404;BME280;19751;40.274;18.268;2023-01-28T11:42:45;100837.84;;;10.68;100.00
33404;BME280;19751;40.274;18.268;2023-01-28T11:45:38;100833.13;;;10.70;100.00
33404;BME280;19751;40.274;18.268;2023-01-28T11:48:18;100824.66;;;10.73;100.00
33404;BME280;19751;40.274;18.268;2023-01-28T12:05:56;100817.03;;;10.77;97.45
33404;BME280;19751;40.274;18.268;2023-01-28T12:11:54;100813.13;;;10.79;95.44
33404;BME280;19751;40.274;18.268;2023-01-28T12:22:38;100828.72;;;10.84;93.60
33404;BME280;19751;40.274;18.268;2023-01-28T12:25:18;100820.66;;;10.84;92.99
33404;BME280;19751;40.274;18.268;2023-01-28T12:31:03;100817.75;;;10.85;90.47
33404;BME280;19751;40.274;18.268;2023-01-28T12:36:20;100826.09;;;10.90;90.93
33404;BME280;19751;40.274;18.268;2023-01-28T12:39:11;100830.47;;;10.91;90.82
33404;BME280;19751;40.274;18.268;2023-01-28T12:42:11;100825.47;;;10.88;90.63
33404;BME280;19751;40.274;18.268;2023-01-28T12:44:43;100823.34;;;10.84;90.92
33404;BME280;19751;40.274;18.268;2023-01-28T12:47:21;100826.88;;;10.84;90.50
33404;BME280;19751;40.274;18.268;2023-01-28T12:50:31;100823.81;;;10.87;89.99
33404;BME280;19751;40.274;18.268;2023-01-28T12:52:57;100837.91;;;10.89;89.53
33404;BME280;19751;40.274;18.268;2023-01-28T12:58:02;100836.03;;;10.90;88.89
33404;BME280;19751;40.274;18.268;2023-01-28T13:00:36;100836.03;;;10.90;89.39
33404;BME280;19751;40.274;18.268;2023-01-28T13:03:33;100836.88;;;10.90;88.65
33404;BME280;19751;40.274;18.268;2023-01-28T13:06:05;100827.78;;;10.91;88.33
33404;BME280;19751;40.274;18.268;2023-01-28T13:08:35;100837.75;;;10.91;88.19
33404;BME280;19751;40.274;18.268;2023-01-28T13:11:03;100835.22;;;10.89;86.63
33404;BME280;19751;40.274;18.268;2023-01-28T13:13:37;100838.09;;;10.88;85.36
33404;BME280;19751;40.274;18.268;2023-01-28T13:16:10;100831.06;;;10.87;85.01
33404;BME280;19751;40.274;18.268;2023-01-28T13:21:15;100843.28;;;10.89;85.27
33404;BME280;19751;40.274;18.268;2023-01-28T13:23:46;100853.03;;;10.90;85.68
33404;BME280;19751;40.274;18.268;2023-01-28T13:28:49;100852.03;;;10.91;84.32
33404;BME280;19751;40.274;18.268;2023-01-28T13:31:17;100852.03;;;10.91;83.37
33404;BME280;19751;40.274;18.268;2023-01-28T13:34:00;100850.34;;;10.90;82.13
33404;BME280;19751;40.274;18.268;2023-01-28T13:41:42;100857.44;;;10.91;81.82
33404;BME280;19751;40.274;18.268;2023-01-28T13:46:51;100863.66;;;10.92;78.52
33404;BME280;19751;40.274;18.268;2023-01-28T13:49:27;100867.56;;;10.89;77.52
33404;BME280;19751;40.274;18.268;2023-01-28T14:14:13;100883.97;;;10.94;76.13
33404;BME280;19751;40.274;18.268;2023-01-28T14:16:53;100898.50;;;10.93;76.39
33404;BME280;19751;40.274;18.268;2023-01-28T14:19:30;100888.75;;;10.92;74.93
33404;BME280;19751;40.274;18.268;2023-01-28T14:21:57;100893.31;;;10.92;73.96
33404;BME280;19751;40.274;18.268;2023-01-28T14:24:23;100896.81;;;10.92;74.65
33404;BME280;19751;40.274;18.268;2023-01-28T14:29:46;100906.56;;;10.93;74.37
33404;BME280;19751;40.274;18.268;2023-01-28T14:32:17;100901.56;;;10.90;73.83
33404;BME280;19751;40.274;18.268;2023-01-28T14:34:45;100903.63;;;10.88;73.09
33404;BME280;19751;40.274;18.268;2023-01-28T14:37:13;100911.22;;;10.85;73.39
33404;BME280;19751;40.274;18.268;2023-01-28T14:42:13;100918.69;;;10.83;74.04